Time;durP1;ratioP1;P1;durP2;ratioP2;P2;SDS_P1;SDS_P2;PMS_P1;PMS_P2;Temp;Humidity;BMP_temperature;BMP_pressure;BME280_temperature;BME280_humidity;BME280_pressure;Samples;Min_cycle;Max_cycle;Signal;HPM_P1;HPM_P2
2022/08/29 00:02:11;;;;;;;9.70;3.20;;;;;;;;;;5057776;28;20290;-73
2022/08/29 00:04:39;;;;;;;8.00;3.08;;;;;;;;;;5065171;28;20803;-72
2022/08/29 00:07:07;;;;;;;6.10;3.15;;;;;;;;;;5057498;28;20226;-73
2022/08/29 00:09:34;;;;;;;7.82;3.10;;;;;;;;;;5035585;28;20247;-72
2022/08/29 00:12:07;;;;;;;6.95;3.10;;;;;;;;;;5074727;28;20223;-72
2022/08/29 00:14:33;;;;;;;5.10;2.35;;;;;;;;;;5062795;28;20659;-73
2022/08/29 00:16:59;;;;;;;7.80;3.22;;;;;;;;;;5052908;28;20262;-72
2022/08/29 00:19:25;;;;;;;5.35;3.00;;;;;;;;;;5072893;28;20225;-71
2022/08/29 00:21:51;;;;;;;9.00;3.15;;;;;;;;;;5057452;28;20226;-72
2022/08/29 00:24:17;;;;;;;5.43;2.75;;;;;;;;;;5076668;28;20230;-73
2022/08/29 00:26:42;;;;;;;8.02;3.35;;;;;;;;;;5068168;28;20332;-72
2022/08/29 00:29:10;;;;;;;5.97;3.10;;;;;;;;;;5061253;28;20614;-73
2022/08/29 00:31:35;;;;;;;6.20;3.03;;;;;;;;;;5062137;28;20222;-72
2022/08/29 00:34:03;;;;;;;5.32;2.95;;;;;;;;;;5057678;28;20227;-73
2022/08/29 00:36:30;;;;;;;4.38;2.78;;;;;;;;;;5077798;28;20599;-72
2022/08/29 00:38:58;;;;;;;4.60;2.70;;;;;;;;;;5064809;28;20234;-73
2022/08/29 00:41:24;;;;;;;6.30;3.15;;;;;;;;;;5063852;28;20283;-72
2022/08/29 00:43:49;;;;;;;6.35;3.00;;;;;;;;;;5061639;28;20712;-72
2022/08/29 00:46:26;;;;;;;7.97;3.00;;;;;;;;;;5079073;28;20271;-72
2022/08/29 00:48:53;;;;;;;4.57;2.88;;;;;;;;;;5075279;28;20625;-73
2022/08/29 00:51:21;;;;;;;6.43;3.03;;;;;;;;;;5062719;28;20209;-73
2022/08/29 00:54:00;;;;;;;6.13;3.40;;;;;;;;;;5062751;28;20226;-73
2022/08/29 00:56:25;;;;;;;8.98;3.58;;;;;;;;;;5067822;28;20226;-73
2022/08/29 00:58:59;;;;;;;9.65;3.30;;;;;;;;;;5057848;28;20309;-72
2022/08/29 01:01:29;;;;;;;7.78;3.20;;;;;;;;;;5065473;28;20242;-72
2022/08/29 01:03:55;;;;;;;5.97;2.80;;;;;;;;;;5046329;28;20250;-73
2022/08/29 01:06:23;;;;;;;4.90;2.88;;;;;;;;;;5057871;28;20724;-73
2022/08/29 01:08:49;;;;;;;8.60;3.50;;;;;;;;;;5029273;28;20248;-73
2022/08/29 01:14:00;;;;;;;6.47;3.00;;;;;;;;;;5049187;28;20607;-73
2022/08/29 01:16:27;;;;;;;7.53;3.30;;;;;;;;;;5071238;28;20611;-74
2022/08/29 01:19:07;;;;;;;9.05;3.30;;;;;;;;;;5043560;28;20810;-73
2022/08/29 01:21:52;;;;;;;8.10;3.35;;;;;;;;;;5089523;28;20221;-74
2022/08/29 01:24:18;;;;;;;9.10;2.92;;;;;;;;;;5066752;28;20226;-73
2022/08/29 01:26:44;;;;;;;8.45;3.30;;;;;;;;;;5083421;28;20347;-72
2022/08/29 01:29:10;;;;;;;6.95;3.25;;;;;;;;;;5044346;28;20234;-73
2022/08/29 01:31:40;;;;;;;7.78;3.28;;;;;;;;;;5076078;28;20265;-73
2022/08/29 01:34:09;;;;;;;6.47;2.97;;;;;;;;;;5074620;28;20699;-74
2022/08/29 01:36:37;;;;;;;9.13;3.75;;;;;;;;;;5058900;28;20230;-73
2022/08/29 01:39:05;;;;;;;12.48;2.83;;;;;;;;;;5096215;28;20232;-73
2022/08/29 01:41:31;;;;;;;8.57;3.20;;;;;;;;;;5036848;28;20248;-73
2022/08/29 01:44:00;;;;;;;17.73;3.78;;;;;;;;;;5058694;28;20715;-72
2022/08/29 01:46:31;;;;;;;10.25;3.22;;;;;;;;;;5078291;28;20233;-73
2022/08/29 01:48:56;;;;;;;7.82;3.08;;;;;;;;;;5052205;28;20251;-74
2022/08/29 01:51:24;;;;;;;6.22;3.10;;;;;;;;;;5057171;28;20233;-71
2022/08/29 01:53:52;;;;;;;8.50;3.03;;;;;;;;;;5063415;28;20230;-72
2022/08/29 01:56:31;;;;;;;9.82;3.10;;;;;;;;;;5075871;28;20215;-73
2022/08/29 01:59:01;;;;;;;7.30;3.22;;;;;;;;;;5057978;28;20222;-71
2022/08/29 02:01:31;;;;;;;11.77;2.97;;;;;;;;;;5051873;28;20661;-73
2022/08/29 02:04:02;;;;;;;6.20;3.05;;;;;;;;;;5049981;28;20233;-73
2022/08/29 02:06:30;;;;;;;6.18;3.30;;;;;;;;;;5059287;28;20235;-74
2022/08/29 02:08:56;;;;;;;4.72;2.90;;;;;;;;;;5060605;28;20222;-74
2022/08/29 02:11:22;;;;;;;6.88;2.97;;;;;;;;;;5076660;28;20230;-72
2022/08/29 02:13:54;;;;;;;6.90;3.00;;;;;;;;;;5046803;28;20219;-72
2022/08/29 02:16:22;;;;;;;4.80;2.65;;;;;;;;;;5062315;28;20561;-73
2022/08/29 02:18:50;;;;;;;8.25;3.10;;;;;;;;;;5084256;28;20306;-72
2022/08/29 02:21:17;;;;;;;6.53;2.92;;;;;;;;;;5068093;28;20257;-72
2022/08/29 02:23:45;;;;;;;8.43;3.03;;;;;;;;;;5086451;28;20218;-73
2022/08/29 02:26:11;;;;;;;4.72;3.05;;;;;;;;;;5068182;28;20222;-70
2022/08/29 02:28:40;;;;;;;9.38;3.10;;;;;;;;;;5047619;28;20738;-72
2022/08/29 02:31:07;;;;;;;4.47;2.88;;;;;;;;;;5066141;28;20238;-73
2022/08/29 02:33:33;;;;;;;7.40;3.30;;;;;;;;;;5080385;28;20313;-73
2022/08/29 02:35:59;;;;;;;7.35;2.67;;;;;;;;;;5052489;28;20223;-72
2022/08/29 02:38:27;;;;;;;6.85;3.25;;;;;;;;;;5081085;28;20967;-73
2022/08/29 02:40:52;;;;;;;6.13;2.78;;;;;;;;;;5065729;28;20229;-72
2022/08/29 02:43:20;;;;;;;9.90;3.33;;;;;;;;;;5075266;28;20226;-72
2022/08/29 02:45:45;;;;;;;5.03;3.13;;;;;;;;;;5085361;28;20301;-72
2022/08/29 02:48:11;;;;;;;7.57;3.20;;;;;;;;;;5080680;28;20225;-72
2022/08/29 02:50:47;;;;;;;5.93;2.92;;;;;;;;;;5066689;28;20228;-71
2022/08/29 02:53:14;;;;;;;6.88;3.13;;;;;;;;;;5063418;28;20221;-72
2022/08/29 02:55:45;;;;;;;9.20;3.25;;;;;;;;;;5059618;28;20226;-74
2022/08/29 02:58:13;;;;;;;7.72;3.38;;;;;;;;;;5032223;28;20224;-71
2022/08/29 03:00:41;;;;;;;11.65;3.55;;;;;;;;;;5052246;28;20257;-73
2022/08/29 03:03:09;;;;;;;5.47;3.00;;;;;;;;;;5077644;28;20285;-72
2022/08/29 03:05:35;;;;;;;6.55;3.38;;;;;;;;;;5068136;28;20253;-72
2022/08/29 03:08:06;;;;;;;10.60;3.10;;;;;;;;;;5062409;28;20226;-72
2022/08/29 03:10:36;;;;;;;6.53;3.40;;;;;;;;;;5079008;28;20283;-71
2022/08/29 03:13:04;;;;;;;6.63;2.70;;;;;;;;;;5078098;28;20225;-71
2022/08/29 03:15:34;;;;;;;7.40;2.95;;;;;;;;;;5040648;28;20238;-72
2022/08/29 03:18:04;;;;;;;6.72;3.10;;;;;;;;;;5064989;28;20230;-72
2022/08/29 03:20:32;;;;;;;4.50;2.80;;;;;;;;;;5094930;28;20218;-72
2022/08/29 03:23:00;;;;;;;7.57;2.80;;;;;;;;;;5062427;28;20226;-73
2022/08/29 03:25:26;;;;;;;6.93;3.00;;;;;;;;;;5070402;28;20218;-71
2022/08/29 03:27:54;;;;;;;9.57;3.30;;;;;;;;;;5092895;28;20294;-72
2022/08/29 03:30:20;;;;;;;9.20;3.08;;;;;;;;;;5048347;28;20666;-72
2022/08/29 03:32:47;;;;;;;6.32;2.75;;;;;;;;;;5077657;28;20254;-72
2022/08/29 03:35:17;;;;;;;6.53;3.22;;;;;;;;;;5059019;28;21224;-71
2022/08/29 03:37:42;;;;;;;4.78;3.05;;;;;;;;;;5074420;28;20692;-72
2022/08/29 03:40:09;;;;;;;7.55;3.53;;;;;;;;;;5073465;28;20222;-72
2022/08/29 03:42:35;;;;;;;10.07;3.22;;;;;;;;;;5060041;28;20227;-73
2022/08/29 03:45:06;;;;;;;7.47;3.10;;;;;;;;;;5062387;28;20222;-72
2022/08/29 03:47:34;;;;;;;7.63;3.38;;;;;;;;;;5047672;28;20327;-72
2022/08/29 03:50:00;;;;;;;5.85;3.10;;;;;;;;;;5060537;28;20224;-73
2022/08/29 03:52:25;;;;;;;5.28;3.30;;;;;;;;;;5029605;28;20705;-72
2022/08/29 03:54:51;;;;;;;6.13;3.47;;;;;;;;;;5086994;28;20352;-73
2022/08/29 03:57:16;;;;;;;5.95;3.42;;;;;;;;;;5045325;28;20219;-72
2022/08/29 03:59:47;;;;;;;13.40;3.13;;;;;;;;;;5073723;28;20246;-73
2022/08/29 04:02:13;;;;;;;6.15;3.28;;;;;;;;;;5076881;28;20258;-72
2022/08/29 04:07:27;;;;;;;9.27;3.15;;;;;;;;;;5077066;28;20241;-73
2022/08/29 04:09:55;;;;;;;9.02;3.20;;;;;;;;;;5053353;28;20250;-72
2022/08/29 04:12:20;;;;;;;7.35;3.00;;;;;;;;;;5067545;28;20289;-73
2022/08/29 04:14:51;;;;;;;9.05;3.85;;;;;;;;;;5062584;28;20249;-72
2022/08/29 04:17:16;;;;;;;7.47;3.38;;;;;;;;;;5045763;28;20219;-72
2022/08/29 04:19:42;;;;;;;8.70;3.88;;;;;;;;;;5054829;28;20762;-72
2022/08/29 04:22:12;;;;;;;8.82;3.50;;;;;;;;;;5052076;28;20581;-72
2022/08/29 04:24:40;;;;;;;8.05;3.75;;;;;;;;;;5048832;28;20234;-73
2022/08/29 04:27:10;;;;;;;9.85;3.45;;;;;;;;;;5057292;28;20734;-71
2022/08/29 04:29:37;;;;;;;9.18;3.65;;;;;;;;;;5070309;28;20764;-72
2022/08/29 04:32:03;;;;;;;8.55;3.80;;;;;;;;;;5022312;28;20228;-73
2022/08/29 04:34:30;;;;;;;7.35;3.45;;;;;;;;;;5046211;28;20230;-73
2022/08/29 04:36:58;;;;;;;6.90;3.50;;;;;;;;;;5046812;28;20715;-72
2022/08/29 04:39:23;;;;;;;8.02;3.38;;;;;;;;;;5058772;28;20230;-72
2022/08/29 04:41:49;;;;;;;10.68;3.72;;;;;;;;;;5066971;28;20222;-72
2022/08/29 04:44:17;;;;;;;10.77;3.65;;;;;;;;;;5054365;28;20583;-71
2022/08/29 04:46:45;;;;;;;9.93;3.70;;;;;;;;;;5056181;28;20235;-73
2022/08/29 04:49:11;;;;;;;7.95;3.50;;;;;;;;;;5047532;28;20231;-73
2022/08/29 04:51:37;;;;;;;7.95;3.53;;;;;;;;;;5079984;28;20283;-71
2022/08/29 04:54:03;;;;;;;7.97;3.47;;;;;;;;;;5082262;28;20237;-72
2022/08/29 04:56:31;;;;;;;10.25;3.95;;;;;;;;;;5039988;28;20226;-72
2022/08/29 04:58:57;;;;;;;9.57;3.88;;;;;;;;;;5053800;28;20288;-72
2022/08/29 05:01:23;;;;;;;16.20;4.15;;;;;;;;;;5048343;28;21002;-72
2022/08/29 05:03:50;;;;;;;8.98;3.75;;;;;;;;;;5061883;28;20696;-72
2022/08/29 05:06:17;;;;;;;12.05;4.03;;;;;;;;;;5077824;28;20230;-72
2022/08/29 05:09:12;;;;;;;10.98;4.22;;;;;;;;;;5039609;28;20222;-72
2022/08/29 05:11:39;;;;;;;11.13;4.40;;;;;;;;;;5067166;28;20704;-72
2022/08/29 05:14:15;;;;;;;9.63;4.68;;;;;;;;;;5033585;28;20243;-71
2022/08/29 05:16:40;;;;;;;12.20;4.28;;;;;;;;;;5073837;28;20284;-71
2022/08/29 05:19:06;;;;;;;10.65;4.78;;;;;;;;;;5068249;28;20222;-71
2022/08/29 05:21:34;;;;;;;15.68;5.20;;;;;;;;;;5038373;28;20223;-71
2022/08/29 05:23:59;;;;;;;13.77;5.25;;;;;;;;;;5018579;28;20242;-72
2022/08/29 05:26:32;;;;;;;12.60;4.90;;;;;;;;;;5065802;28;20230;-71
2022/08/29 05:28:58;;;;;;;13.90;5.00;;;;;;;;;;5057703;28;20219;-71
2022/08/29 05:31:23;;;;;;;15.30;4.95;;;;;;;;;;5065693;28;20604;-73
2022/08/29 05:33:51;;;;;;;10.32;4.65;;;;;;;;;;5045098;28;20707;-72
2022/08/29 05:36:19;;;;;;;15.50;5.13;;;;;;;;;;5049215;28;20229;-72
2022/08/29 05:38:47;;;;;;;14.13;5.10;;;;;;;;;;5044519;28;20226;-71
2022/08/29 05:41:13;;;;;;;11.73;4.82;;;;;;;;;;5060239;28;20843;-71
2022/08/29 05:43:41;;;;;;;22.02;5.20;;;;;;;;;;5047877;28;20250;-72
2022/08/29 05:46:08;;;;;;;12.00;4.90;;;;;;;;;;5056706;28;21139;-72
2022/08/29 05:48:34;;;;;;;11.65;5.10;;;;;;;;;;5022016;28;20230;-71
2022/08/29 05:51:02;;;;;;;12.20;5.10;;;;;;;;;;5058936;28;20730;-72
2022/08/29 05:53:33;;;;;;;11.32;4.82;;;;;;;;;;5076547;28;20256;-72
2022/08/29 05:55:59;;;;;;;17.95;5.35;;;;;;;;;;5027518;28;20242;-72
2022/08/29 05:58:27;;;;;;;12.10;4.85;;;;;;;;;;5033654;28;20246;-71
2022/08/29 06:00:54;;;;;;;12.30;4.65;;;;;;;;;;5078871;28;20230;-73
2022/08/29 06:03:20;;;;;;;14.70;4.68;;;;;;;;;;5038093;28;20737;-71
2022/08/29 06:05:51;;;;;;;11.95;5.10;;;;;;;;;;5039756;28;20226;-71
2022/08/29 06:08:18;;;;;;;9.93;4.80;;;;;;;;;;5064536;28;20214;-73
2022/08/29 06:10:44;;;;;;;10.73;4.80;;;;;;;;;;5045769;28;20246;-72
2022/08/29 06:13:12;;;;;;;12.93;5.22;;;;;;;;;;5032368;28;20351;-73
2022/08/29 06:15:37;;;;;;;11.50;5.15;;;;;;;;;;5038489;28;20361;-71
2022/08/29 06:18:08;;;;;;;10.52;5.07;;;;;;;;;;5061723;28;20305;-71
2022/08/29 06:21:15;;;;;;;9.30;4.75;;;;;;;;;;5023301;28;20218;-71
2022/08/29 06:23:44;;;;;;;12.40;5.03;;;;;;;;;;5029982;28;20238;-72
2022/08/29 06:26:10;;;;;;;10.05;5.35;;;;;;;;;;5052976;28;20703;-72
2022/08/29 06:28:52;;;;;;;12.45;5.68;;;;;;;;;;5080194;28;20293;-74
2022/08/29 06:31:25;;;;;;;10.75;5.50;;;;;;;;;;5062154;28;20214;-73
2022/08/29 06:33:52;;;;;;;7.20;5.18;;;;;;;;;;5090183;28;20229;-70
2022/08/29 06:36:17;;;;;;;11.48;5.72;;;;;;;;;;5054951;28;20250;-71
2022/08/29 06:38:45;;;;;;;11.23;5.63;;;;;;;;;;5046612;28;20222;-71
2022/08/29 06:41:12;;;;;;;14.77;5.32;;;;;;;;;;5051335;28;20387;-71
2022/08/29 06:43:39;;;;;;;12.93;6.07;;;;;;;;;;5077459;28;20785;-71
2022/08/29 06:46:06;;;;;;;10.05;5.10;;;;;;;;;;5078945;28;20233;-72
2022/08/29 06:48:32;;;;;;;10.70;5.45;;;;;;;;;;5060369;28;20223;-72
2022/08/29 06:51:04;;;;;;;11.32;5.72;;;;;;;;;;5065083;28;20312;-73
2022/08/29 06:53:32;;;;;;;16.25;5.53;;;;;;;;;;5027654;28;20227;-73
2022/08/29 06:56:29;;;;;;;11.57;5.28;;;;;;;;;;5043703;28;20211;-72
2022/08/29 06:58:57;;;;;;;13.77;5.13;;;;;;;;;;5060076;28;20226;-72
2022/08/29 07:01:28;;;;;;;10.25;5.20;;;;;;;;;;5050362;28;20277;-73
2022/08/29 07:03:56;;;;;;;10.60;5.20;;;;;;;;;;5064794;28;20244;-73
2022/08/29 07:06:24;;;;;;;13.43;5.55;;;;;;;;;;5066663;28;20302;-72
2022/08/29 07:08:57;;;;;;;15.43;4.90;;;;;;;;;;5054322;28;21080;-73
2022/08/29 07:11:28;;;;;;;9.27;4.90;;;;;;;;;;5062694;28;20218;-72
2022/08/29 07:13:55;;;;;;;10.85;4.50;;;;;;;;;;5042115;28;20226;-72
2022/08/29 07:16:22;;;;;;;10.35;4.97;;;;;;;;;;5043599;28;20220;-72
2022/08/29 07:18:50;;;;;;;8.18;4.30;;;;;;;;;;5078007;28;20230;-72
2022/08/29 07:21:17;;;;;;;7.85;4.53;;;;;;;;;;5045020;28;20219;-72
2022/08/29 07:23:43;;;;;;;10.35;4.80;;;;;;;;;;5038929;28;20237;-71
2022/08/29 07:26:10;;;;;;;9.45;4.60;;;;;;;;;;5032343;28;20223;-70
2022/08/29 07:28:36;;;;;;;7.07;3.72;;;;;;;;;;5063236;28;20711;-71
2022/08/29 07:31:01;;;;;;;7.50;4.13;;;;;;;;;;5066481;28;20237;-71
2022/08/29 07:33:27;;;;;;;12.05;4.03;;;;;;;;;;5042222;28;20229;-73
2022/08/29 07:35:53;;;;;;;6.43;3.42;;;;;;;;;;5080649;28;20229;-71
2022/08/29 07:38:19;;;;;;;6.47;3.45;;;;;;;;;;5060453;28;20221;-71
2022/08/29 07:40:45;;;;;;;6.53;3.55;;;;;;;;;;5058758;28;20227;-73
2022/08/29 07:43:11;;;;;;;6.38;2.78;;;;;;;;;;5093335;28;20305;-73
2022/08/29 07:45:37;;;;;;;8.50;3.67;;;;;;;;;;5046314;28;20226;-72
2022/08/29 07:48:03;;;;;;;5.78;3.10;;;;;;;;;;5060486;28;20787;-72
2022/08/29 07:50:29;;;;;;;4.35;2.63;;;;;;;;;;5049811;28;20222;-72
2022/08/29 07:52:54;;;;;;;4.78;2.70;;;;;;;;;;5044783;28;20291;-72
2022/08/29 07:55:20;;;;;;;6.97;3.03;;;;;;;;;;5060979;28;20231;-72
2022/08/29 07:57:47;;;;;;;5.03;2.92;;;;;;;;;;5051844;28;20695;-71
2022/08/29 08:00:13;;;;;;;7.65;3.00;;;;;;;;;;5050511;28;20222;-71
2022/08/29 08:02:41;;;;;;;4.40;2.53;;;;;;;;;;5038082;28;20235;-72
2022/08/29 08:05:10;;;;;;;7.68;2.50;;;;;;;;;;5051100;28;20249;-71
2022/08/29 08:07:36;;;;;;;7.30;2.08;;;;;;;;;;5054738;28;20230;-72
2022/08/29 08:10:02;;;;;;;4.75;2.50;;;;;;;;;;5048463;28;20217;-72
2022/08/29 08:12:28;;;;;;;5.57;2.40;;;;;;;;;;5052170;28;20277;-72
2022/08/29 08:14:55;;;;;;;2.88;2.03;;;;;;;;;;5042677;28;20230;-71
2022/08/29 08:17:26;;;;;;;4.47;2.42;;;;;;;;;;5029813;28;20208;-71
2022/08/29 08:19:52;;;;;;;5.75;2.60;;;;;;;;;;5079900;28;20944;-71
2022/08/29 08:22:18;;;;;;;4.88;2.63;;;;;;;;;;5040889;28;20227;-71
2022/08/29 08:24:43;;;;;;;3.78;2.10;;;;;;;;;;5058638;28;20250;-72
2022/08/29 08:27:09;;;;;;;2.97;1.90;;;;;;;;;;5066309;28;20218;-72
2022/08/29 08:29:35;;;;;;;3.13;1.95;;;;;;;;;;5051641;28;20829;-71
2022/08/29 08:32:01;;;;;;;3.55;1.63;;;;;;;;;;5045277;28;20297;-72
2022/08/29 08:34:28;;;;;;;3.03;2.10;;;;;;;;;;5076843;28;20246;-72
2022/08/29 08:36:53;;;;;;;3.50;2.00;;;;;;;;;;5044750;28;20227;-72
2022/08/29 08:39:21;;;;;;;3.00;1.88;;;;;;;;;;5072700;28;20242;-73
2022/08/29 08:42:04;;;;;;;2.97;1.90;;;;;;;;;;5066274;28;20240;-72
2022/08/29 08:44:52;;;;;;;6.60;2.05;;;;;;;;;;5062693;28;20226;-73
2022/08/29 08:47:23;;;;;;;4.78;2.05;;;;;;;;;;5039339;28;20272;-72
2022/08/29 08:49:54;;;;;;;3.38;1.70;;;;;;;;;;5067441;28;20312;-73
2022/08/29 08:52:36;;;;;;;6.60;1.92;;;;;;;;;;5037258;28;20309;-75
2022/08/29 08:55:27;;;;;;;4.05;2.03;;;;;;;;;;5044569;28;20239;-71
2022/08/29 08:58:05;;;;;;;6.40;2.20;;;;;;;;;;5074598;28;20215;-72
2022/08/29 09:00:40;;;;;;;3.25;1.88;;;;;;;;;;5045848;28;20218;-72
2022/08/29 09:03:37;;;;;;;3.70;2.00;;;;;;;;;;5041828;28;20708;-72
2022/08/29 09:06:09;;;;;;;2.00;1.75;;;;;;;;;;5026700;28;20310;-72
2022/08/29 09:08:43;;;;;;;2.88;1.67;;;;;;;;;;5054770;28;20227;-72
2022/08/29 09:11:18;;;;;;;2.67;1.77;;;;;;;;;;5059262;28;20283;-74
2022/08/29 09:14:24;;;;;;;4.25;1.75;;;;;;;;;;5066273;28;20219;-72
2022/08/29 09:16:51;;;;;;;2.83;1.77;;;;;;;;;;5045575;28;20222;-72
2022/08/29 09:19:16;;;;;;;1.80;1.35;;;;;;;;;;5048563;28;20236;-72
2022/08/29 09:21:42;;;;;;;12.85;3.50;;;;;;;;;;5060493;28;20714;-74
2022/08/29 09:24:11;;;;;;;4.07;2.22;;;;;;;;;;5061294;28;20245;-72
2022/08/29 09:26:37;;;;;;;2.50;1.70;;;;;;;;;;5040190;28;20227;-73
2022/08/29 09:29:03;;;;;;;3.30;1.70;;;;;;;;;;5035144;28;20284;-72
2022/08/29 09:31:34;;;;;;;1.73;1.60;;;;;;;;;;5030001;28;20976;-72
2022/08/29 09:34:07;;;;;;;1.90;1.75;;;;;;;;;;5042565;28;20300;-73
2022/08/29 09:36:43;;;;;;;2.63;1.90;;;;;;;;;;5046966;28;20222;-72
2022/08/29 09:39:14;;;;;;;3.78;1.52;;;;;;;;;;5028220;28;21008;-72
2022/08/29 09:41:40;;;;;;;1.60;1.40;;;;;;;;;;5073573;28;20364;-73
2022/08/29 09:44:08;;;;;;;1.73;1.50;;;;;;;;;;5058506;28;20786;-74
2022/08/29 09:46:36;;;;;;;1.77;1.30;;;;;;;;;;5069894;28;20231;-74
2022/08/29 09:49:04;;;;;;;3.28;1.65;;;;;;;;;;5073520;28;20226;-75
2022/08/29 09:51:34;;;;;;;4.07;1.80;;;;;;;;;;5074964;28;20234;-76
2022/08/29 09:54:13;;;;;;;2.63;1.75;;;;;;;;;;5060780;28;20257;-74
2022/08/29 09:57:08;;;;;;;2.67;1.45;;;;;;;;;;5053835;28;20247;-72
2022/08/29 09:59:38;;;;;;;1.92;1.30;;;;;;;;;;5077354;28;20227;-73
2022/08/29 10:02:23;;;;;;;1.48;1.15;;;;;;;;;;5055593;28;20301;-74
2022/08/29 10:04:58;;;;;;;1.30;1.20;;;;;;;;;;5067014;28;20222;-72
2022/08/29 10:07:35;;;;;;;2.15;1.30;;;;;;;;;;5048341;28;20254;-74
2022/08/29 10:10:12;;;;;;;3.00;1.20;;;;;;;;;;5062763;28;20615;-73
2022/08/29 10:13:01;;;;;;;1.52;1.23;;;;;;;;;;5039983;28;20225;-72
2022/08/29 10:15:38;;;;;;;2.42;1.13;;;;;;;;;;5066449;28;20230;-72
2022/08/29 10:18:23;;;;;;;1.30;1.20;;;;;;;;;;5043249;28;20332;-73
2022/08/29 10:21:14;;;;;;;1.30;1.00;;;;;;;;;;5046541;28;20261;-73
2022/08/29 10:24:08;;;;;;;1.27;1.17;;;;;;;;;;5075580;28;20237;-72
2022/08/29 10:26:48;;;;;;;1.50;1.05;;;;;;;;;;5078033;28;20261;-72
2022/08/29 10:29:38;;;;;;;1.20;1.10;;;;;;;;;;5077820;28;21077;-72
2022/08/29 10:32:40;;;;;;;1.23;1.13;;;;;;;;;;5064108;28;20283;-73
2022/08/29 10:35:09;;;;;;;1.25;1.00;;;;;;;;;;5048126;28;20218;-73
2022/08/29 10:37:52;;;;;;;1.25;1.20;;;;;;;;;;5062142;28;20234;-72
2022/08/29 10:40:46;;;;;;;1.02;0.90;;;;;;;;;;5050932;28;20250;-71
2022/08/29 10:43:50;;;;;;;1.02;0.88;;;;;;;;;;5045210;28;20237;-72
2022/08/29 10:46:42;;;;;;;2.03;1.10;;;;;;;;;;5060697;28;20238;-72
2022/08/29 10:49:27;;;;;;;1.92;0.80;;;;;;;;;;5066886;28;20331;-71
2022/08/29 10:52:21;;;;;;;1.20;0.90;;;;;;;;;;5069640;28;20274;-72
2022/08/29 10:55:08;;;;;;;0.73;0.73;;;;;;;;;;5051768;28;20266;-72
2022/08/29 10:57:42;;;;;;;0.93;0.70;;;;;;;;;;5082093;28;20242;-72
2022/08/29 11:00:12;;;;;;;0.73;0.73;;;;;;;;;;5072077;28;20253;-71
2022/08/29 11:02:57;;;;;;;0.90;0.90;;;;;;;;;;5039922;28;20226;-71
2022/08/29 11:05:28;;;;;;;1.00;1.00;;;;;;;;;;5071002;28;20234;-72
2022/08/29 11:08:18;;;;;;;1.73;0.90;;;;;;;;;;5045598;28;20341;-73
2022/08/29 11:10:48;;;;;;;1.60;0.80;;;;;;;;;;5023146;28;20286;-72
2022/08/29 11:13:41;;;;;;;0.80;0.80;;;;;;;;;;5062942;28;20243;-73
2022/08/29 11:16:45;;;;;;;0.93;0.93;;;;;;;;;;5055394;28;20219;-74
2022/08/29 11:19:22;;;;;;;1.52;0.93;;;;;;;;;;5068298;28;20219;-74
2022/08/29 11:22:15;;;;;;;1.85;1.08;;;;;;;;;;5042687;28;20246;-74
2022/08/29 11:24:42;;;;;;;0.85;0.85;;;;;;;;;;5088860;28;20810;-74
2022/08/29 11:27:30;;;;;;;0.73;0.73;;;;;;;;;;5063056;28;20245;-73
2022/08/29 11:30:02;;;;;;;1.23;0.80;;;;;;;;;;5053442;28;20207;-75
2022/08/29 11:32:46;;;;;;;1.25;0.77;;;;;;;;;;5046508;28;20225;-73
2022/08/29 11:35:22;;;;;;;2.55;0.90;;;;;;;;;;5059091;28;20250;-76
2022/08/29 11:38:08;;;;;;;0.77;0.77;;;;;;;;;;5073515;28;20221;-73
2022/08/29 11:41:10;;;;;;;1.15;0.80;;;;;;;;;;5049547;28;20314;-73
2022/08/29 11:43:42;;;;;;;2.15;1.00;;;;;;;;;;5030381;28;20242;-73
2022/08/29 11:46:09;;;;;;;1.92;0.80;;;;;;;;;;5041209;28;20262;-73
2022/08/29 11:48:37;;;;;;;0.73;0.73;;;;;;;;;;5068923;28;20234;-73
2022/08/29 11:51:43;;;;;;;0.82;0.63;;;;;;;;;;5075163;28;20252;-74
2022/08/29 11:54:23;;;;;;;0.80;0.75;;;;;;;;;;4998788;28;20335;-73
2022/08/29 11:56:50;;;;;;;0.80;0.80;;;;;;;;;;5050069;28;20298;-74
2022/08/29 11:59:49;;;;;;;1.35;0.88;;;;;;;;;;5047889;28;20227;-72
2022/08/29 12:02:26;;;;;;;1.77;0.85;;;;;;;;;;5071974;28;20218;-72
2022/08/29 12:05:24;;;;;;;1.25;0.90;;;;;;;;;;5065186;28;20292;-71
2022/08/29 12:07:57;;;;;;;1.20;0.85;;;;;;;;;;5059403;28;20238;-71
2022/08/29 12:10:34;;;;;;;1.00;0.80;;;;;;;;;;5048123;28;20610;-72
2022/08/29 12:13:00;;;;;;;3.13;1.10;;;;;;;;;;5024017;28;20696;-73
2022/08/29 12:15:28;;;;;;;1.13;0.90;;;;;;;;;;5047150;28;20231;-73
2022/08/29 12:18:08;;;;;;;1.48;0.80;;;;;;;;;;5076607;28;20245;-72
2022/08/29 12:20:57;;;;;;;0.80;0.80;;;;;;;;;;5064787;28;20225;-73
2022/08/29 12:23:34;;;;;;;1.35;0.70;;;;;;;;;;5072866;28;20923;-73
2022/08/29 12:26:04;;;;;;;2.70;0.75;;;;;;;;;;5031720;28;20231;-73
2022/08/29 12:28:33;;;;;;;1.20;0.70;;;;;;;;;;5048347;28;20859;-73
2022/08/29 12:31:09;;;;;;;0.80;0.80;;;;;;;;;;5022281;28;20215;-72
2022/08/29 12:34:12;;;;;;;1.10;0.70;;;;;;;;;;5031096;28;20781;-72
2022/08/29 12:37:02;;;;;;;1.52;0.90;;;;;;;;;;5055840;28;20311;-73
2022/08/29 12:39:51;;;;;;;0.68;0.68;;;;;;;;;;5077726;28;20229;-73
2022/08/29 12:42:26;;;;;;;0.70;0.70;;;;;;;;;;5005991;28;20219;-74
2022/08/29 12:45:09;;;;;;;0.98;0.80;;;;;;;;;;5075413;28;20222;-72
2022/08/29 12:47:44;;;;;;;3.55;1.08;;;;;;;;;;5031652;28;20264;-74
2022/08/29 12:50:27;;;;;;;0.98;0.90;;;;;;;;;;5036652;28;20385;-71
2022/08/29 12:53:01;;;;;;;1.13;0.70;;;;;;;;;;5044172;28;20305;-73
2022/08/29 12:55:34;;;;;;;0.82;0.65;;;;;;;;;;5060670;28;21153;-74
2022/08/29 12:58:02;;;;;;;2.05;0.80;;;;;;;;;;5054241;28;20298;-72
2022/08/29 13:00:31;;;;;;;1.75;0.80;;;;;;;;;;5034054;28;20614;-71
2022/08/29 13:03:02;;;;;;;0.60;0.60;;;;;;;;;;5039223;28;20576;-74
2022/08/29 13:05:31;;;;;;;0.68;0.68;;;;;;;;;;5059419;28;20232;-73
2022/08/29 13:07:58;;;;;;;1.10;0.70;;;;;;;;;;5056402;28;20218;-73
2022/08/29 13:10:24;;;;;;;1.42;0.70;;;;;;;;;;5048354;28;20283;-72
2022/08/29 13:12:49;;;;;;;0.75;0.75;;;;;;;;;;5058466;28;20225;-72
2022/08/29 13:15:28;;;;;;;0.77;0.70;;;;;;;;;;5057988;28;20233;-72
2022/08/29 13:17:54;;;;;;;0.93;0.70;;;;;;;;;;5068954;28;20269;-73
2022/08/29 13:20:41;;;;;;;1.67;0.70;;;;;;;;;;5032658;28;20675;-74
2022/08/29 13:23:44;;;;;;;0.80;0.80;;;;;;;;;;5080802;28;20221;-72
2022/08/29 13:26:14;;;;;;;0.68;0.68;;;;;;;;;;5012574;28;1147071;-68
2022/08/29 13:28:49;;;;;;;0.90;0.80;;;;;;;;;;5067422;28;20238;-68
2022/08/29 13:31:15;;;;;;;0.77;0.70;;;;;;;;;;5073554;28;21049;-72
2022/08/29 13:33:50;;;;;;;1.58;0.80;;;;;;;;;;5077179;28;20226;-73
2022/08/29 13:36:53;;;;;;;0.70;0.70;;;;;;;;;;5079011;28;20248;-73
2022/08/29 13:39:24;;;;;;;1.33;0.80;;;;;;;;;;5081404;28;20217;-72
2022/08/29 13:42:02;;;;;;;0.60;0.60;;;;;;;;;;5045889;28;20310;-72
2022/08/29 13:44:36;;;;;;;2.50;0.93;;;;;;;;;;5060214;28;20254;-71
2022/08/29 13:47:10;;;;;;;1.13;0.75;;;;;;;;;;5059789;28;20234;-70
2022/08/29 13:49:39;;;;;;;0.68;0.68;;;;;;;;;;5046616;28;20237;-71
2022/08/29 13:52:05;;;;;;;0.98;0.63;;;;;;;;;;5062010;28;20215;-71
2022/08/29 13:54:31;;;;;;;0.75;0.75;;;;;;;;;;5059681;28;20238;-72
2022/08/29 13:57:00;;;;;;;1.85;0.52;;;;;;;;;;5084202;28;20210;-74
2022/08/29 13:59:30;;;;;;;2.28;0.75;;;;;;;;;;5030032;28;20231;-73
2022/08/29 14:02:01;;;;;;;0.90;0.75;;;;;;;;;;5042934;28;20226;-72
2022/08/29 14:04:27;;;;;;;0.70;0.60;;;;;;;;;;5076333;28;20312;-71
2022/08/29 14:06:54;;;;;;;1.88;0.90;;;;;;;;;;5035216;28;20311;-71
2022/08/29 14:09:34;;;;;;;1.33;0.63;;;;;;;;;;5029729;28;20236;-73
2022/08/29 14:12:00;;;;;;;0.73;0.73;;;;;;;;;;5053326;28;20220;-71
2022/08/29 14:14:26;;;;;;;2.38;0.80;;;;;;;;;;5046944;28;20222;-71
2022/08/29 14:16:52;;;;;;;0.98;0.60;;;;;;;;;;5048750;28;20761;-71
2022/08/29 14:19:24;;;;;;;0.75;0.65;;;;;;;;;;5029039;28;20219;-71
2022/08/29 14:21:53;;;;;;;0.40;0.40;;;;;;;;;;5050471;28;20241;-75
2022/08/29 14:24:19;;;;;;;0.50;0.50;;;;;;;;;;5041902;28;20223;-72
2022/08/29 14:26:47;;;;;;;0.45;0.45;;;;;;;;;;5025254;28;20222;-71
2022/08/29 14:29:14;;;;;;;1.05;0.73;;;;;;;;;;5049089;28;20219;-69
2022/08/29 14:31:39;;;;;;;0.40;0.40;;;;;;;;;;4995105;28;20226;-73
2022/08/29 14:34:07;;;;;;;0.47;0.47;;;;;;;;;;5010212;28;20257;-71
2022/08/29 14:36:33;;;;;;;0.50;0.50;;;;;;;;;;5024668;28;20250;-70
2022/08/29 14:39:00;;;;;;;1.02;0.77;;;;;;;;;;5046061;28;20230;-73
2022/08/29 14:41:25;;;;;;;1.98;0.50;;;;;;;;;;5024453;28;20730;-71
2022/08/29 14:43:52;;;;;;;0.68;0.60;;;;;;;;;;5046051;28;20247;-75
2022/08/29 14:46:19;;;;;;;0.60;0.60;;;;;;;;;;5051507;28;20215;-71
2022/08/29 14:48:46;;;;;;;0.85;0.85;;;;;;;;;;5061415;28;20312;-71
2022/08/29 14:51:12;;;;;;;2.22;0.57;;;;;;;;;;5064378;28;20229;-71
2022/08/29 14:53:38;;;;;;;0.55;0.50;;;;;;;;;;5081781;28;20994;-71
2022/08/29 14:56:03;;;;;;;0.50;0.50;;;;;;;;;;5049029;28;20236;-72
2022/08/29 14:58:31;;;;;;;0.60;0.60;;;;;;;;;;5045217;28;20723;-72
2022/08/29 15:00:57;;;;;;;0.40;0.40;;;;;;;;;;5055776;28;20236;-72
2022/08/29 15:03:25;;;;;;;1.42;0.63;;;;;;;;;;5060665;28;20225;-73
2022/08/29 15:05:53;;;;;;;0.60;0.60;;;;;;;;;;5030251;28;20226;-73
2022/08/29 15:08:19;;;;;;;1.30;0.60;;;;;;;;;;5069843;28;20708;-74
2022/08/29 15:10:49;;;;;;;0.85;0.60;;;;;;;;;;5067596;28;20253;-73
2022/08/29 15:13:17;;;;;;;1.20;0.70;;;;;;;;;;5061686;28;20324;-73